createdAt,value
2023-01-31T00:00:25.645Z,4.70
2023-01-31T00:05:29.425Z,4.70
2023-01-31T00:10:34.903Z,4.70
2023-01-31T00:15:39.076Z,4.60
2023-01-31T00:20:42.868Z,4.60
2023-01-31T00:25:47.908Z,4.60
2023-01-31T00:30:51.631Z,4.60
2023-01-31T00:35:55.352Z,4.60
2023-01-31T00:41:01.571Z,4.60
2023-01-31T00:46:05.849Z,4.50
2023-01-31T00:51:09.710Z,4.50
2023-01-31T00:56:18.214Z,4.60
2023-01-31T01:01:24.463Z,4.50
2023-01-31T01:06:29.452Z,4.50
2023-01-31T01:11:36.760Z,4.50
2023-01-31T01:16:42.264Z,4.50
2023-01-31T01:21:46.700Z,4.50
2023-01-31T01:26:51.790Z,4.50
2023-01-31T01:31:55.619Z,4.60
2023-01-31T01:36:59.452Z,4.60
2023-01-31T01:42:04.830Z,4.60
2023-01-31T01:47:15.797Z,4.60
2023-01-31T01:52:20.740Z,4.60
2023-01-31T01:57:32.059Z,4.60
2023-01-31T02:02:36.269Z,4.60
2023-01-31T02:07:41.929Z,4.60
2023-01-31T02:12:47.886Z,4.60
2023-01-31T02:17:52.202Z,4.60
2023-01-31T02:23:13.225Z,4.60
2023-01-31T02:28:55.225Z,4.60
2023-01-31T02:34:06.817Z,4.60
2023-01-31T02:39:24.351Z,4.60
2023-01-31T02:44:50.681Z,4.60
2023-01-31T02:50:00.322Z,4.60
2023-01-31T02:55:28.844Z,4.60
2023-01-31T03:00:35.155Z,4.60
2023-01-31T03:05:42.817Z,4.60
2023-01-31T03:11:00.485Z,4.60
2023-01-31T03:16:31.439Z,4.60
2023-01-31T03:21:41.044Z,4.70
2023-01-31T03:26:45.540Z,4.70
2023-01-31T03:31:56.155Z,4.70
2023-01-31T03:37:07.475Z,4.70
2023-01-31T03:42:26.415Z,4.80
2023-01-31T03:47:34.319Z,4.80
2023-01-31T03:52:45.377Z,4.80
2023-01-31T03:57:53.196Z,4.80
2023-01-31T04:03:05.312Z,4.90
2023-01-31T04:08:10.963Z,4.80
2023-01-31T04:13:16.128Z,4.80
2023-01-31T04:18:19.877Z,4.80
2023-01-31T04:23:26.605Z,4.80
2023-01-31T04:28:30.265Z,4.70
2023-01-31T04:33:34.258Z,4.70
2023-01-31T04:38:39.314Z,4.70
2023-01-31T04:43:43.024Z,4.60
2023-01-31T04:48:46.885Z,4.60
2023-01-31T04:53:52.251Z,4.70
2023-01-31T04:58:55.941Z,4.60
2023-01-31T05:03:59.696Z,4.70
2023-01-31T05:09:05.455Z,4.70
2023-01-31T05:14:09.409Z,4.60
2023-01-31T05:19:13.143Z,4.70
2023-01-31T05:24:20.229Z,4.70
2023-01-31T05:29:23.704Z,4.70
2023-01-31T05:34:28.815Z,4.70
2023-01-31T05:39:33.944Z,4.70
2023-01-31T05:44:37.659Z,4.70
2023-01-31T05:49:41.306Z,4.70
2023-01-31T05:54:46.449Z,4.70
2023-01-31T05:59:50.217Z,4.70
2023-01-31T06:04:54.154Z,4.70
2023-01-31T06:09:59.958Z,4.70
2023-01-31T06:15:03.697Z,4.70
2023-01-31T06:20:08.301Z,4.70
2023-01-31T06:25:13.404Z,4.70
2023-01-31T06:30:17.335Z,4.70
2023-01-31T06:35:21.324Z,4.70
2023-01-31T06:40:26.758Z,4.80
2023-01-31T06:45:30.679Z,4.80
2023-01-31T06:50:34.379Z,4.80
2023-01-31T06:55:39.650Z,4.70
2023-01-31T07:00:43.691Z,4.70
2023-01-31T07:05:48.812Z,4.80
2023-01-31T07:10:54.030Z,4.80
2023-01-31T07:15:58.035Z,4.70
2023-01-31T07:21:01.820Z,4.80
2023-01-31T07:26:07.689Z,4.80
2023-01-31T07:31:15.632Z,4.80
2023-01-31T07:36:26.312Z,4.80
2023-01-31T07:41:31.405Z,4.80
2023-01-31T07:46:35.137Z,4.80
2023-01-31T07:51:39.208Z,4.90
2023-01-31T07:56:44.356Z,4.90
2023-01-31T08:02:05.643Z,4.90
2023-01-31T08:07:10.316Z,5.00
2023-01-31T08:12:15.604Z,5.00
2023-01-31T08:17:19.379Z,5.10
2023-01-31T08:22:23.195Z,5.10
2023-01-31T08:27:28.446Z,5.20
2023-01-31T08:32:32.740Z,5.20
2023-01-31T08:37:36.864Z,5.30
2023-01-31T08:42:42.645Z,5.40
2023-01-31T08:47:46.688Z,5.40
2023-01-31T08:52:54.642Z,5.40
2023-01-31T08:58:02.046Z,5.50
2023-01-31T09:03:05.861Z,5.60
2023-01-31T09:08:09.731Z,5.60
2023-01-31T09:13:14.740Z,5.70
2023-01-31T09:18:18.470Z,5.80
2023-01-31T09:23:22.886Z,5.80
2023-01-31T09:28:28.720Z,5.90
2023-01-31T09:33:33.918Z,6.00
2023-01-31T09:38:38.061Z,6.20
2023-01-31T09:43:47.207Z,6.30
2023-01-31T09:48:54.198Z,6.30
2023-01-31T09:53:58.262Z,6.40
2023-01-31T09:59:11.114Z,6.50
2023-01-31T10:04:31.710Z,6.50
2023-01-31T10:09:37.951Z,6.50
2023-01-31T10:14:50.355Z,6.50
2023-01-31T10:19:58.444Z,6.50
2023-01-31T10:25:17.659Z,6.50
2023-01-31T10:30:29.063Z,6.60
2023-01-31T10:35:40.619Z,6.60
2023-01-31T10:40:47.926Z,6.60
2023-01-31T10:45:53.053Z,6.70
2023-01-31T10:51:06.114Z,6.80
2023-01-31T10:56:14.475Z,6.80
2023-01-31T11:01:19.779Z,6.90
2023-01-31T11:06:24.722Z,7.00
2023-01-31T11:11:30.373Z,7.00
2023-01-31T11:16:40.025Z,7.10
2023-01-31T11:21:49.176Z,7.20
2023-01-31T11:26:54.944Z,7.30
2023-01-31T11:32:01.318Z,7.40
2023-01-31T11:37:07.891Z,7.50
2023-01-31T11:42:14.864Z,7.50
2023-01-31T11:47:20.065Z,7.60
2023-01-31T11:52:29.797Z,7.70
2023-01-31T11:57:35.887Z,7.70
2023-01-31T12:02:42.827Z,7.70
2023-01-31T12:07:50.341Z,7.70
2023-01-31T12:12:54.217Z,7.70
2023-01-31T12:18:02.173Z,7.70
2023-01-31T12:23:15.664Z,7.70
2023-01-31T12:28:30.384Z,7.70
2023-01-31T12:33:48.408Z,7.70
2023-01-31T12:39:05.323Z,7.70
2023-01-31T12:44:35.152Z,7.70
2023-01-31T12:49:59.313Z,7.70
2023-01-31T12:55:14.355Z,7.70
2023-01-31T13:00:33.357Z,7.70
2023-01-31T13:05:45.180Z,7.70
2023-01-31T13:10:53.802Z,7.80
2023-01-31T13:16:03.379Z,7.80
2023-01-31T13:21:12.212Z,7.80
2023-01-31T13:26:21.612Z,7.80
2023-01-31T13:31:29.420Z,7.80
2023-01-31T13:36:40.053Z,7.90
2023-01-31T13:41:44.028Z,7.90
2023-01-31T13:46:53.843Z,7.90
2023-01-31T13:52:01.649Z,8.00
2023-01-31T13:57:06.493Z,8.10
2023-01-31T14:02:20.646Z,8.20
2023-01-31T14:07:26.276Z,8.20
2023-01-31T14:12:34.975Z,8.20
2023-01-31T14:17:58.548Z,8.30
2023-01-31T14:23:32.519Z,8.30
2023-01-31T14:28:43.662Z,8.30
2023-01-31T14:33:50.321Z,8.40
2023-01-31T14:39:29.722Z,8.40
2023-01-31T14:44:47.044Z,8.40
2023-01-31T14:50:21.745Z,8.40
2023-01-31T14:55:44.023Z,8.40
2023-01-31T15:00:55.272Z,8.40
2023-01-31T15:06:09.793Z,8.40
2023-01-31T15:11:41.479Z,8.40
2023-01-31T15:16:48.046Z,8.50
2023-01-31T15:21:55.417Z,8.50
2023-01-31T15:27:00.413Z,8.50
2023-01-31T15:32:15.355Z,8.50
2023-01-31T15:37:23.544Z,8.40
2023-01-31T15:42:29.496Z,8.40
2023-01-31T15:47:34.580Z,8.50
2023-01-31T15:52:38.980Z,8.40
2023-01-31T15:57:47.590Z,8.40
2023-01-31T16:03:00.657Z,8.40
2023-01-31T16:08:07.150Z,8.40
2023-01-31T16:13:11.211Z,8.40
2023-01-31T16:18:17.831Z,8.40
2023-01-31T16:23:29.483Z,8.30
2023-01-31T16:28:39.683Z,8.30
2023-01-31T16:33:50.854Z,8.30
2023-01-31T16:39:00.798Z,8.40
2023-01-31T16:44:06.192Z,8.40
2023-01-31T16:49:22.050Z,8.30
2023-01-31T16:54:31.060Z,8.30
2023-01-31T16:59:48.605Z,8.30
2023-01-31T17:04:57.126Z,8.30
2023-01-31T17:10:04.149Z,8.30
2023-01-31T17:15:15.023Z,8.20
2023-01-31T17:20:22.198Z,8.20
2023-01-31T17:25:27.659Z,8.20
2023-01-31T17:30:31.924Z,8.20
2023-01-31T17:35:39.757Z,8.20
2023-01-31T17:40:45.615Z,8.10
2023-01-31T17:45:49.337Z,8.10
2023-01-31T17:50:54.363Z,8.00
2023-01-31T17:55:58.255Z,8.00
2023-01-31T18:01:02.016Z,7.90
2023-01-31T18:06:09.080Z,7.90
2023-01-31T18:11:15.034Z,7.80
2023-01-31T18:16:20.849Z,7.80
2023-01-31T18:21:26.433Z,7.70
2023-01-31T18:26:30.349Z,7.70
2023-01-31T18:31:34.498Z,7.60
2023-01-31T18:36:40.234Z,7.60
2023-01-31T18:41:44.049Z,7.50
2023-01-31T18:46:47.776Z,7.50
2023-01-31T18:51:52.977Z,7.50
2023-01-31T18:56:56.806Z,7.40
2023-01-31T19:02:00.547Z,7.40
2023-01-31T19:07:06.657Z,7.30
2023-01-31T19:12:10.476Z,7.30
2023-01-31T19:17:15.386Z,7.30
2023-01-31T19:22:20.497Z,7.20
2023-01-31T19:27:24.284Z,7.20
2023-01-31T19:32:29.140Z,7.20
2023-01-31T19:37:34.280Z,7.10
2023-01-31T19:42:38.122Z,7.20
2023-01-31T19:47:41.840Z,7.20
2023-01-31T19:52:47.126Z,7.10
2023-01-31T19:57:50.859Z,7.10
2023-01-31T20:02:55.891Z,7.10
2023-01-31T20:08:01.043Z,7.10
2023-01-31T20:13:04.832Z,7.00
2023-01-31T20:18:08.630Z,7.00
2023-01-31T20:23:13.757Z,6.90
2023-01-31T20:28:18.531Z,6.90
2023-01-31T20:33:22.348Z,6.90
2023-01-31T20:38:27.433Z,6.90
2023-01-31T20:43:31.155Z,6.90
2023-01-31T20:48:35.009Z,6.80
2023-01-31T20:53:40.044Z,6.70
2023-01-31T20:58:44.765Z,6.70
2023-01-31T21:03:48.515Z,6.70
2023-01-31T21:08:55.304Z,6.60
2023-01-31T21:13:59.325Z,6.60
2023-01-31T21:19:03.144Z,6.50
2023-01-31T21:24:09.399Z,6.50
2023-01-31T21:29:13.169Z,6.50
2023-01-31T21:34:17.088Z,6.40
2023-01-31T21:39:22.452Z,6.40
2023-01-31T21:44:26.430Z,6.40
2023-01-31T21:49:30.236Z,6.40
2023-01-31T21:54:35.377Z,6.50
2023-01-31T21:59:39.491Z,6.50
2023-01-31T22:04:43.171Z,6.50
2023-01-31T22:09:48.201Z,6.50
2023-01-31T22:14:51.855Z,6.60
2023-01-31T22:19:55.687Z,6.60
2023-01-31T22:25:00.788Z,6.50
2023-01-31T22:30:27.558Z,6.60
2023-01-31T22:35:28.774Z,6.60
2023-01-31T22:40:34.882Z,6.70
2023-01-31T22:45:38.615Z,6.70
2023-01-31T22:50:42.779Z,6.70
2023-01-31T22:55:47.966Z,6.70
2023-01-31T23:00:51.627Z,6.70
2023-01-31T23:05:55.332Z,6.70
2023-01-31T23:11:05.264Z,6.60
2023-01-31T23:16:09.961Z,6.60
2023-01-31T23:21:15.734Z,6.50
2023-01-31T23:26:20.842Z,6.50
2023-01-31T23:31:24.585Z,6.50
2023-01-31T23:36:28.753Z,6.40
2023-01-31T23:41:33.798Z,6.40
2023-01-31T23:46:37.634Z,6.30
2023-01-31T23:51:41.344Z,6.30
2023-01-31T23:56:46.514Z,6.20
